Time,TemperatureF,DewpointF,PressureIn,WindDirection,WindDirectionDegrees,WindSpeedMPH,WindSpeedGustMPH,Humidity,HourlyPrecipIn,Conditions,Clouds,dailyrainin,SoftwareType,DateUTC
2013-02-06 00:00:00,29.0,25.0,-100.00,NNE,30,7.0,9.0,86,-99.99,,,-99.99,,2013-02-06 05:00:00,
2013-02-06 00:01:00,29.0,25.0,-100.00,NNE,30,7.0,11.0,86,-99.99,,,-99.99,,2013-02-06 05:01:00,
2013-02-06 00:11:00,29.0,25.0,-100.00,NNE,30,7.0,11.0,86,-99.99,,,-99.99,,2013-02-06 05:11:00,
2013-02-06 00:22:00,29.0,25.0,-100.00,NNE,20,7.0,9.0,86,-99.99,,,-99.99,,2013-02-06 05:22:00,
2013-02-06 00:31:00,29.0,25.0,-100.00,NNE,20,7.0,9.0,86,-99.99,,,-99.99,,2013-02-06 05:31:00,
2013-02-06 00:41:00,29.0,25.0,-100.00,NNE,30,7.0,9.0,86,-99.99,,,-99.99,,2013-02-06 05:41:00,
2013-02-06 00:52:00,29.0,25.0,-100.00,NNE,30,7.0,9.0,86,-99.99,,,-99.99,,2013-02-06 05:52:00,
2013-02-06 01:21:00,29.0,25.0,-100.00,NNE,20,4.0,7.0,87,-99.99,,,-99.99,,2013-02-06 06:21:00,
2013-02-06 01:31:00,29.0,25.0,-100.00,North,10,4.0,7.0,87,-99.99,,,-99.99,,2013-02-06 06:31:00,
2013-02-06 01:41:00,29.0,25.0,-100.00,North,10,4.0,7.0,87,-99.99,,,-99.99,,2013-02-06 06:41:00,
2013-02-06 01:51:00,29.0,25.0,-100.00,North,10,4.0,7.0,87,-99.99,,,-99.99,,2013-02-06 06:51:00,
2013-02-06 02:01:00,29.0,25.0,-100.00,North,10,4.0,7.0,87,-99.99,,,-99.99,,2013-02-06 07:01:00,
2013-02-06 02:11:00,29.0,25.0,-100.00,North,10,4.0,7.0,87,-99.99,,,-99.99,,2013-02-06 07:11:00,
2013-02-06 02:21:00,29.0,25.0,-100.00,NNE,20,7.0,9.0,86,-99.99,,,-99.99,,2013-02-06 07:21:00,
2013-02-06 02:32:00,29.0,26.0,-100.00,NNE,20,7.0,11.0,88,-99.99,,,-99.99,,2013-02-06 07:32:00,
2013-02-06 02:41:00,29.0,26.0,-100.00,NE,40,9.0,11.0,87,-99.99,,,-99.99,,2013-02-06 07:41:00,
2013-02-06 02:51:00,29.0,26.0,-100.00,NE,40,9.0,11.0,87,-99.99,,,-99.99,,2013-02-06 07:51:00,
2013-02-06 03:00:00,29.0,26.0,-100.00,ENE,60,7.0,9.0,88,-99.99,,,-99.99,,2013-02-06 08:00:00,
2013-02-06 03:01:00,29.0,26.0,-100.00,NE,40,9.0,11.0,87,-99.99,,,-99.99,,2013-02-06 08:01:00,
2013-02-06 03:11:00,29.0,26.0,-100.00,NE,50,7.0,9.0,88,-99.99,,,-99.99,,2013-02-06 08:11:00,
2013-02-06 03:21:00,29.0,26.0,-100.00,ENE,60,7.0,9.0,88,-99.99,,,-99.99,,2013-02-06 08:21:00,
2013-02-06 03:31:00,29.0,26.0,-100.00,ENE,60,7.0,9.0,88,-99.99,,,-99.99,,2013-02-06 08:31:00,
2013-02-06 03:41:00,29.0,26.0,-100.00,ENE,60,7.0,9.0,88,-99.99,,,-99.99,,2013-02-06 08:41:00,
2013-02-06 03:53:00,29.0,26.0,-100.00,ENE,60,7.0,9.0,88,-99.99,,,-99.99,,2013-02-06 08:53:00,
2013-02-06 04:11:00,29.0,26.0,-100.00,NE,40,2.0,4.0,87,-99.99,,,-99.99,,2013-02-06 09:11:00,
2013-02-06 04:21:00,29.0,26.0,-100.00,NE,50,2.0,4.0,88,-99.99,,,-99.99,,2013-02-06 09:21:00,
2013-02-06 04:31:00,29.0,26.0,-100.00,NE,50,2.0,4.0,88,-99.99,,,-99.99,,2013-02-06 09:31:00,
2013-02-06 04:41:00,29.0,26.0,-100.00,East,80,2.0,2.0,88,-99.99,,,-99.99,,2013-02-06 09:41:00,
2013-02-06 04:51:00,29.0,26.0,-100.00,East,80,2.0,2.0,88,-99.99,,,-99.99,,2013-02-06 09:51:00,
2013-02-06 05:01:00,29.0,26.0,-100.00,East,80,2.0,2.0,88,-99.99,,,-99.99,,2013-02-06 10:01:00,
2013-02-06 05:11:00,29.0,26.0,-100.00,NNW,330,2.0,2.0,88,-99.99,,,-99.99,,2013-02-06 10:11:00,
2013-02-06 05:21:00,29.0,26.0,-100.00,NNW,330,2.0,2.0,88,-99.99,,,-99.99,,2013-02-06 10:21:00,
2013-02-06 05:31:00,29.0,26.0,-100.00,NW,320,2.0,2.0,88,-99.99,,,-99.99,,2013-02-06 10:31:00,
2013-02-06 05:41:00,30.0,26.0,-100.00,NNW,330,4.0,7.0,87,-99.99,,,-99.99,,2013-02-06 10:41:00,
2013-02-06 05:51:00,30.0,26.0,-100.00,NNW,330,4.0,7.0,87,-99.99,,,-99.99,,2013-02-06 10:51:00,
2013-02-06 06:01:00,30.0,26.0,-100.00,NNW,330,4.0,7.0,87,-99.99,,,-99.99,,2013-02-06 11:01:00,
2013-02-06 06:11:00,30.0,26.0,-100.00,NNW,330,4.0,7.0,87,-99.99,,,-99.99,,2013-02-06 11:11:00,
2013-02-06 06:21:00,30.0,27.0,-100.00,WNW,300,4.0,7.0,88,-99.99,,,-99.99,,2013-02-06 11:21:00,
2013-02-06 06:31:00,30.0,27.0,-100.00,WNW,300,4.0,7.0,88,-99.99,,,-99.99,,2013-02-06 11:31:00,
2013-02-06 06:41:00,30.0,27.0,-100.00,NW,310,7.0,9.0,88,-99.99,,,-99.99,,2013-02-06 11:41:00,
2013-02-06 06:52:00,30.0,27.0,-100.00,NW,310,7.0,9.0,88,-99.99,,,-99.99,,2013-02-06 11:52:00,
2013-02-06 07:01:00,30.0,27.0,-100.00,NW,310,7.0,9.0,88,-99.99,,,-99.99,,2013-02-06 12:01:00,
2013-02-06 07:12:00,30.0,27.0,-100.00,WNW,290,9.0,11.0,89,-99.99,,,-99.99,,2013-02-06 12:12:00,
2013-02-06 07:21:00,30.0,27.0,-100.00,WNW,290,9.0,11.0,89,-99.99,,,-99.99,,2013-02-06 12:21:00,
2013-02-06 07:32:00,30.0,27.0,-100.00,WNW,290,9.0,11.0,88,-99.99,,,-99.99,,2013-02-06 12:32:00,
2013-02-06 07:41:00,30.0,27.0,-100.00,WNW,290,9.0,11.0,88,-99.99,,,-99.99,,2013-02-06 12:41:00,
2013-02-06 07:52:00,30.0,27.0,-100.00,WNW,290,9.0,11.0,88,-99.99,,,-99.99,,2013-02-06 12:52:00,
2013-02-06 08:01:00,30.0,27.0,-100.00,WNW,290,9.0,11.0,88,-99.99,,,-99.99,,2013-02-06 13:01:00,
2013-02-06 08:11:00,31.0,28.0,-100.00,West,280,9.0,13.0,88,-99.99,,,-99.99,,2013-02-06 13:11:00,
2013-02-06 08:21:00,31.0,28.0,-100.00,West,280,9.0,13.0,88,-99.99,,,-99.99,,2013-02-06 13:21:00,
2013-02-06 08:31:00,31.0,28.0,-100.00,West,280,11.0,11.0,87,-99.99,,,-99.99,,2013-02-06 13:31:00,
2013-02-06 08:41:00,31.0,28.0,-100.00,West,280,11.0,13.0,87,-99.99,,,-99.99,,2013-02-06 13:41:00,
2013-02-06 08:51:00,31.0,28.0,-100.00,West,280,11.0,13.0,87,-99.99,,,-99.99,,2013-02-06 13:51:00,
2013-02-06 09:01:00,31.0,28.0,-100.00,West,280,11.0,13.0,87,-99.99,,,-99.99,,2013-02-06 14:01:00,
2013-02-06 09:11:00,31.0,28.0,-100.00,West,280,13.0,18.0,86,-99.99,,,-99.99,,2013-02-06 14:11:00,
2013-02-06 09:21:00,32.0,28.0,-100.00,WNW,290,13.0,18.0,85,-99.99,,,-99.99,,2013-02-06 14:21:00,
2013-02-06 09:31:00,32.0,28.0,-100.00,WNW,290,13.0,18.0,85,-99.99,,,-99.99,,2013-02-06 14:31:00,
2013-02-06 09:41:00,32.0,27.0,-100.00,West,280,13.0,16.0,83,-99.99,,,-99.99,,2013-02-06 14:41:00,
2013-02-06 09:51:00,32.0,27.0,-100.00,West,280,13.0,16.0,83,-99.99,,,-99.99,,2013-02-06 14:51:00,
2013-02-06 10:01:00,32.0,27.0,-100.00,West,280,13.0,16.0,83,-99.99,,,-99.99,,2013-02-06 15:01:00,
2013-02-06 10:11:00,32.0,27.0,-100.00,West,280,13.0,16.0,83,-99.99,,,-99.99,,2013-02-06 15:11:00,
2013-02-06 11:21:00,32.0,27.0,-100.00,West,260,16.0,18.0,82,-99.99,,,-99.99,,2013-02-06 16:21:00,
2013-02-06 11:31:00,32.0,27.0,-100.00,West,260,16.0,18.0,80,-99.99,,,-99.99,,2013-02-06 16:31:00,
2013-02-06 11:41:00,33.0,27.0,-100.00,West,260,13.0,18.0,78,-99.99,,,-99.99,,2013-02-06 16:41:00,
2013-02-06 11:51:00,33.0,27.0,-100.00,West,260,13.0,18.0,78,-99.99,,,-99.99,,2013-02-06 16:51:00,
2013-02-06 12:01:00,33.0,27.0,-100.00,West,260,13.0,18.0,78,-99.99,,,-99.99,,2013-02-06 17:01:00,
2013-02-06 12:11:00,33.0,27.0,-100.00,West,260,13.0,18.0,78,-99.99,,,-99.99,,2013-02-06 17:11:00,
2013-02-06 12:21:00,34.0,27.0,-100.00,West,270,16.0,18.0,74,-99.99,,,-99.99,,2013-02-06 17:21:00,
2013-02-06 12:32:00,35.0,26.0,-100.00,West,270,16.0,20.0,69,-99.99,,,-99.99,,2013-02-06 17:32:00,
2013-02-06 12:41:00,35.0,26.0,-100.00,West,270,16.0,18.0,68,-99.99,,,-99.99,,2013-02-06 17:41:00,
2013-02-06 12:52:00,35.0,26.0,-100.00,West,270,16.0,18.0,68,-99.99,,,-99.99,,2013-02-06 17:52:00,
2013-02-06 13:01:00,35.0,26.0,-100.00,West,260,16.0,20.0,68,-99.99,,,-99.99,,2013-02-06 18:01:00,
2013-02-06 13:11:00,35.0,26.0,-100.00,West,260,16.0,20.0,68,-99.99,,,-99.99,,2013-02-06 18:11:00,
2013-02-06 13:22:00,35.0,26.0,-100.00,West,260,16.0,20.0,68,-99.99,,,-99.99,,2013-02-06 18:22:00,
2013-02-06 13:32:00,35.0,26.0,-100.00,WSW,250,13.0,16.0,69,-99.99,,,-99.99,,2013-02-06 18:32:00,
2013-02-06 13:41:00,35.0,26.0,-100.00,WSW,250,13.0,16.0,69,-99.99,,,-99.99,,2013-02-06 18:41:00,
2013-02-06 13:52:00,35.0,26.0,-100.00,WSW,250,13.0,16.0,69,-99.99,,,-99.99,,2013-02-06 18:52:00,
2013-02-06 14:00:00,37.0,23.0,-100.00,West,280,20.0,22.0,57,-99.99,,,-99.99,,2013-02-06 19:00:00,
2013-02-06 14:01:00,35.0,26.0,-100.00,WSW,250,13.0,16.0,69,-99.99,,,-99.99,,2013-02-06 19:01:00,
2013-02-06 14:11:00,35.0,26.0,-100.00,WSW,250,13.0,16.0,69,-99.99,,,-99.99,,2013-02-06 19:11:00,
2013-02-06 14:21:00,37.0,23.0,-100.00,West,280,20.0,22.0,57,-99.99,,,-99.99,,2013-02-06 19:21:00,
2013-02-06 14:31:00,37.0,23.0,-100.00,West,280,20.0,22.0,57,-99.99,,,-99.99,,2013-02-06 19:31:00,
2013-02-06 14:41:00,37.0,23.0,-100.00,West,280,20.0,22.0,57,-99.99,,,-99.99,,2013-02-06 19:41:00,
2013-02-06 14:52:00,37.0,23.0,-100.00,West,280,20.0,22.0,57,-99.99,,,-99.99,,2013-02-06 19:52:00,
2013-02-06 15:31:00,37.0,24.0,-100.00,West,280,18.0,22.0,59,-99.99,,,-99.99,,2013-02-06 20:31:00,
2013-02-06 15:41:00,37.0,24.0,-100.00,West,280,18.0,22.0,59,-99.99,,,-99.99,,2013-02-06 20:41:00,
2013-02-06 16:41:00,37.0,23.0,-100.00,WNW,290,16.0,18.0,56,-99.99,,,-99.99,,2013-02-06 21:41:00,
2013-02-06 17:41:00,38.0,23.0,-100.00,WNW,300,13.0,18.0,55,-99.99,,,-99.99,,2013-02-06 22:41:00,
2013-02-06 17:51:00,38.0,23.0,-100.00,WNW,300,13.0,18.0,55,-99.99,,,-99.99,,2013-02-06 22:51:00,
2013-02-06 18:01:00,38.0,23.0,-100.00,WNW,300,13.0,18.0,55,-99.99,,,-99.99,,2013-02-06 23:01:00,
2013-02-06 18:11:00,38.0,23.0,-100.00,WNW,300,13.0,18.0,55,-99.99,,,-99.99,,2013-02-06 23:11:00,
2013-02-06 19:11:00,37.0,22.0,-100.00,NW,320,13.0,18.0,53,-99.99,,,-99.99,,2013-02-07 00:11:00,
2013-02-06 19:21:00,37.0,22.0,-100.00,NNW,330,16.0,18.0,54,-99.99,,,-99.99,,2013-02-07 00:21:00,
2013-02-06 19:31:00,37.0,22.0,-100.00,NNW,330,16.0,18.0,54,-99.99,,,-99.99,,2013-02-07 00:31:00,
2013-02-06 19:41:00,36.0,21.0,-100.00,NNW,330,18.0,20.0,52,-99.99,,,-99.99,,2013-02-07 00:41:00,
2013-02-06 19:51:00,36.0,21.0,-100.00,NNW,330,18.0,20.0,52,-99.99,,,-99.99,,2013-02-07 00:51:00,
2013-02-06 20:01:00,36.0,21.0,-100.00,NNW,330,18.0,20.0,52,-99.99,,,-99.99,,2013-02-07 01:01:00,
2013-02-06 20:11:00,36.0,21.0,-100.00,NW,310,13.0,18.0,53,-99.99,,,-99.99,,2013-02-07 01:11:00,
2013-02-06 20:21:00,36.0,20.0,-100.00,NW,310,18.0,20.0,52,-99.99,,,-99.99,,2013-02-07 01:21:00,
2013-02-06 20:31:00,36.0,20.0,-100.00,NW,310,18.0,20.0,52,-99.99,,,-99.99,,2013-02-07 01:31:00,
2013-02-06 20:41:00,35.0,20.0,-100.00,NW,310,18.0,22.0,52,-99.99,,,-99.99,,2013-02-07 01:41:00,
2013-02-06 20:52:00,35.0,20.0,-100.00,NW,310,18.0,22.0,52,-99.99,,,-99.99,,2013-02-07 01:52:00,
2013-02-06 21:01:00,35.0,20.0,-100.00,NW,310,18.0,22.0,52,-99.99,,,-99.99,,2013-02-07 02:01:00,
2013-02-06 21:11:00,35.0,20.0,-100.00,NW,310,18.0,22.0,52,-99.99,,,-99.99,,2013-02-07 02:11:00,
2013-02-06 21:21:00,35.0,17.0,-100.00,NW,320,20.0,27.0,48,-99.99,,,-99.99,,2013-02-07 02:21:00,
2013-02-06 21:31:00,34.0,16.0,-100.00,NW,320,22.0,27.0,46,-99.99,,,-99.99,,2013-02-07 02:31:00,
2013-02-06 21:41:00,34.0,16.0,-100.00,NW,320,22.0,27.0,46,-99.99,,,-99.99,,2013-02-07 02:41:00,
2013-02-06 21:51:00,34.0,16.0,-100.00,NW,320,22.0,27.0,46,-99.99,,,-99.99,,2013-02-07 02:51:00,
2013-02-06 22:01:00,34.0,15.0,-100.00,NW,320,20.0,25.0,46,-99.99,,,-99.99,,2013-02-07 03:01:00,
2013-02-06 22:11:00,34.0,15.0,-100.00,NW,320,20.0,25.0,46,-99.99,,,-99.99,,2013-02-07 03:11:00,
2013-02-06 22:21:00,33.0,15.0,-100.00,NW,320,20.0,25.0,45,-99.99,,,-99.99,,2013-02-07 03:21:00,
2013-02-06 22:31:00,33.0,13.0,-100.00,NNW,330,18.0,27.0,43,-99.99,,,-99.99,,2013-02-07 03:31:00,
2013-02-06 22:41:00,33.0,10.0,-100.00,NW,320,25.0,29.0,37,-99.99,,,-99.99,,2013-02-07 03:41:00,
2013-02-06 22:51:00,33.0,10.0,-100.00,NW,320,25.0,29.0,37,-99.99,,,-99.99,,2013-02-07 03:51:00,
2013-02-06 23:00:00,32.0,9.0,-100.00,NW,310,22.0,29.0,37,-99.99,,,-99.99,,2013-02-07 04:00:00,
2013-02-06 23:01:00,33.0,10.0,-100.00,NW,320,25.0,29.0,37,-99.99,,,-99.99,,2013-02-07 04:01:00,
2013-02-06 23:11:00,32.0,9.0,-100.00,NW,310,22.0,29.0,38,-99.99,,,-99.99,,2013-02-07 04:11:00,
2013-02-06 23:21:00,32.0,9.0,-100.00,NW,310,22.0,29.0,38,-99.99,,,-99.99,,2013-02-07 04:21:00,
2013-02-06 23:31:00,32.0,9.0,-100.00,NW,310,22.0,29.0,37,-99.99,,,-99.99,,2013-02-07 04:31:00,
2013-02-06 23:41:00,32.0,9.0,-100.00,NW,310,22.0,29.0,37,-99.99,,,-99.99,,2013-02-07 04:41:00,
2013-02-06 23:52:00,32.0,9.0,-100.00,NW,310,22.0,29.0,37,-99.99,,,-99.99,,2013-02-07 04:52:00,